sensor_id;sensor_type;location;lat;lon;timestamp;P1;durP1;ratioP1;P2;durP2;ratioP2
68484;SDS011;55472;50.060;21.960;2022-12-18T00:01:27;46.58;;;11.52;;
68484;SDS011;55472;50.060;21.960;2022-12-18T00:03:54;41.30;;;9.50;;
68484;SDS011;55472;50.060;21.960;2022-12-18T00:06:21;44.58;;;11.63;;
68484;SDS011;55472;50.060;21.960;2022-12-18T00:08:49;49.10;;;11.05;;
68484;SDS011;55472;50.060;21.960;2022-12-18T00:11:20;42.40;;;11.40;;
68484;SDS011;55472;50.060;21.960;2022-12-18T00:13:49;43.92;;;12.75;;
68484;SDS011;55472;50.060;21.960;2022-12-18T00:16:17;52.27;;;11.40;;
68484;SDS011;55472;50.060;21.960;2022-12-18T00:18:46;48.28;;;11.05;;
68484;SDS011;55472;50.060;21.960;2022-12-18T00:21:14;47.90;;;11.55;;
68484;SDS011;55472;50.060;21.960;2022-12-18T00:23:41;49.05;;;10.77;;
68484;SDS011;55472;50.060;21.960;2022-12-18T00:26:42;40.90;;;11.63;;
68484;SDS011;55472;50.060;21.960;2022-12-18T00:29:08;44.77;;;11.17;;
68484;SDS011;55472;50.060;21.960;2022-12-18T00:31:39;37.88;;;10.88;;
68484;SDS011;55472;50.060;21.960;2022-12-18T00:34:06;46.22;;;12.13;;
68484;SDS011;55472;50.060;21.960;2022-12-18T00:36:33;44.17;;;11.00;;
68484;SDS011;55472;50.060;21.960;2022-12-18T00:39:01;36.08;;;10.77;;
68484;SDS011;55472;50.060;21.960;2022-12-18T00:41:29;46.10;;;12.43;;
68484;SDS011;55472;50.060;21.960;2022-12-18T00:44:15;39.92;;;10.45;;
68484;SDS011;55472;50.060;21.960;2022-12-18T00:46:43;40.00;;;11.13;;
68484;SDS011;55472;50.060;21.960;2022-12-18T00:49:10;31.35;;;9.98;;
68484;SDS011;55472;50.060;21.960;2022-12-18T00:51:36;31.08;;;9.60;;
68484;SDS011;55472;50.060;21.960;2022-12-18T00:54:02;38.93;;;10.33;;
68484;SDS011;55472;50.060;21.960;2022-12-18T00:56:28;37.28;;;10.50;;
68484;SDS011;55472;50.060;21.960;2022-12-18T00:58:55;39.08;;;10.80;;
68484;SDS011;55472;50.060;21.960;2022-12-18T01:01:21;38.95;;;9.65;;
68484;SDS011;55472;50.060;21.960;2022-12-18T01:03:47;42.13;;;10.38;;
68484;SDS011;55472;50.060;21.960;2022-12-18T01:06:14;41.97;;;10.03;;
68484;SDS011;55472;50.060;21.960;2022-12-18T01:08:41;38.42;;;11.48;;
68484;SDS011;55472;50.060;21.960;2022-12-18T01:11:08;36.60;;;9.88;;
68484;SDS011;55472;50.060;21.960;2022-12-18T01:13:44;30.58;;;8.85;;
68484;SDS011;55472;50.060;21.960;2022-12-18T01:16:12;35.53;;;9.40;;
68484;SDS011;55472;50.060;21.960;2022-12-18T01:18:40;30.60;;;8.87;;
68484;SDS011;55472;50.060;21.960;2022-12-18T01:21:07;24.02;;;7.38;;
68484;SDS011;55472;50.060;21.960;2022-12-18T01:23:35;32.40;;;9.15;;
68484;SDS011;55472;50.060;21.960;2022-12-18T01:26:10;28.67;;;8.77;;
68484;SDS011;55472;50.060;21.960;2022-12-18T01:28:42;28.25;;;7.65;;
68484;SDS011;55472;50.060;21.960;2022-12-18T01:33:49;28.50;;;7.63;;
68484;SDS011;55472;50.060;21.960;2022-12-18T01:38:45;25.05;;;7.25;;
68484;SDS011;55472;50.060;21.960;2022-12-18T01:41:13;25.45;;;7.32;;
68484;SDS011;55472;50.060;21.960;2022-12-18T01:46:10;24.40;;;6.25;;
68484;SDS011;55472;50.060;21.960;2022-12-18T01:48:37;30.23;;;6.70;;
68484;SDS011;55472;50.060;21.960;2022-12-18T01:51:05;21.77;;;7.15;;
68484;SDS011;55472;50.060;21.960;2022-12-18T01:53:34;30.95;;;7.22;;
68484;SDS011;55472;50.060;21.960;2022-12-18T01:56:02;33.33;;;8.30;;
68484;SDS011;55472;50.060;21.960;2022-12-18T01:58:31;24.60;;;8.00;;
68484;SDS011;55472;50.060;21.960;2022-12-18T02:01:06;31.42;;;7.60;;
68484;SDS011;55472;50.060;21.960;2022-12-18T02:03:33;32.88;;;8.48;;
68484;SDS011;55472;50.060;21.960;2022-12-18T02:23:12;34.37;;;7.43;;
68484;SDS011;55472;50.060;21.960;2022-12-18T02:28:45;25.90;;;6.45;;
68484;SDS011;55472;50.060;21.960;2022-12-18T02:31:21;30.02;;;6.57;;
68484;SDS011;55472;50.060;21.960;2022-12-18T02:33:58;29.52;;;8.00;;
68484;SDS011;55472;50.060;21.960;2022-12-18T02:36:28;24.87;;;6.87;;
68484;SDS011;55472;50.060;21.960;2022-12-18T02:38:55;29.50;;;7.63;;
68484;SDS011;55472;50.060;21.960;2022-12-18T02:41:24;20.25;;;7.07;;
68484;SDS011;55472;50.060;21.960;2022-12-18T02:43:59;22.58;;;5.88;;
68484;SDS011;55472;50.060;21.960;2022-12-18T02:46:36;18.90;;;6.32;;
68484;SDS011;55472;50.060;21.960;2022-12-18T02:49:14;27.97;;;6.33;;
68484;SDS011;55472;50.060;21.960;2022-12-18T02:51:56;28.98;;;7.50;;
68484;SDS011;55472;50.060;21.960;2022-12-18T02:58:26;22.40;;;7.00;;
68484;SDS011;55472;50.060;21.960;2022-12-18T03:04:10;21.30;;;5.63;;
68484;SDS011;55472;50.060;21.960;2022-12-18T03:06:53;30.35;;;7.20;;
68484;SDS011;55472;50.060;21.960;2022-12-18T03:09:36;23.02;;;6.10;;
68484;SDS011;55472;50.060;21.960;2022-12-18T03:12:20;21.70;;;5.38;;
68484;SDS011;55472;50.060;21.960;2022-12-18T03:17:49;24.93;;;6.43;;
68484;SDS011;55472;50.060;21.960;2022-12-18T03:20:25;18.60;;;5.85;;
68484;SDS011;55472;50.060;21.960;2022-12-18T03:22:56;26.80;;;6.25;;
68484;SDS011;55472;50.060;21.960;2022-12-18T03:25:30;23.20;;;5.93;;
68484;SDS011;55472;50.060;21.960;2022-12-18T03:27:58;17.63;;;5.68;;
68484;SDS011;55472;50.060;21.960;2022-12-18T03:30:27;18.13;;;5.83;;
68484;SDS011;55472;50.060;21.960;2022-12-18T03:33:05;21.58;;;5.90;;
68484;SDS011;55472;50.060;21.960;2022-12-18T03:35:40;23.58;;;6.60;;
68484;SDS011;55472;50.060;21.960;2022-12-18T03:38:08;25.80;;;6.32;;
68484;SDS011;55472;50.060;21.960;2022-12-18T03:44:03;19.37;;;5.93;;
68484;SDS011;55472;50.060;21.960;2022-12-18T03:49:38;15.68;;;5.07;;
68484;SDS011;55472;50.060;21.960;2022-12-18T03:52:38;17.50;;;5.32;;
68484;SDS011;55472;50.060;21.960;2022-12-18T03:55:16;18.38;;;4.55;;
68484;SDS011;55472;50.060;21.960;2022-12-18T03:57:45;22.97;;;6.67;;
68484;SDS011;55472;50.060;21.960;2022-12-18T04:00:13;30.48;;;6.68;;
68484;SDS011;55472;50.060;21.960;2022-12-18T04:02:44;20.20;;;6.45;;
68484;SDS011;55472;50.060;21.960;2022-12-18T04:05:17;22.17;;;5.30;;
68484;SDS011;55472;50.060;21.960;2022-12-18T04:07:45;18.45;;;6.10;;
68484;SDS011;55472;50.060;21.960;2022-12-18T04:10:14;19.27;;;6.07;;
68484;SDS011;55472;50.060;21.960;2022-12-18T04:12:42;20.33;;;6.10;;
68484;SDS011;55472;50.060;21.960;2022-12-18T04:15:09;16.92;;;4.22;;
68484;SDS011;55472;50.060;21.960;2022-12-18T04:17:37;17.98;;;5.00;;
68484;SDS011;55472;50.060;21.960;2022-12-18T04:20:04;18.60;;;4.47;;
68484;SDS011;55472;50.060;21.960;2022-12-18T04:22:31;20.83;;;5.30;;
68484;SDS011;55472;50.060;21.960;2022-12-18T04:24:57;22.42;;;6.20;;
68484;SDS011;55472;50.060;21.960;2022-12-18T04:27:23;16.42;;;4.72;;
68484;SDS011;55472;50.060;21.960;2022-12-18T04:29:49;18.25;;;5.38;;
68484;SDS011;55472;50.060;21.960;2022-12-18T04:32:16;17.37;;;5.33;;
68484;SDS011;55472;50.060;21.960;2022-12-18T04:34:42;20.58;;;5.15;;
68484;SDS011;55472;50.060;21.960;2022-12-18T04:37:08;18.00;;;5.38;;
68484;SDS011;55472;50.060;21.960;2022-12-18T04:39:34;21.30;;;5.65;;
68484;SDS011;55472;50.060;21.960;2022-12-18T04:42:01;21.17;;;6.03;;
68484;SDS011;55472;50.060;21.960;2022-12-18T04:44:27;16.37;;;5.00;;
68484;SDS011;55472;50.060;21.960;2022-12-18T04:46:53;18.98;;;5.28;;
68484;SDS011;55472;50.060;21.960;2022-12-18T04:49:19;21.02;;;6.07;;
68484;SDS011;55472;50.060;21.960;2022-12-18T04:51:45;24.00;;;5.78;;
68484;SDS011;55472;50.060;21.960;2022-12-18T04:54:11;21.23;;;5.60;;
68484;SDS011;55472;50.060;21.960;2022-12-18T04:56:38;15.03;;;5.60;;
68484;SDS011;55472;50.060;21.960;2022-12-18T04:59:04;21.17;;;6.15;;
68484;SDS011;55472;50.060;21.960;2022-12-18T05:01:30;13.73;;;4.53;;
68484;SDS011;55472;50.060;21.960;2022-12-18T05:03:59;23.80;;;5.85;;
68484;SDS011;55472;50.060;21.960;2022-12-18T05:06:25;14.35;;;4.93;;
68484;SDS011;55472;50.060;21.960;2022-12-18T05:08:51;15.87;;;5.30;;
68484;SDS011;55472;50.060;21.960;2022-12-18T05:11:18;19.25;;;5.50;;
68484;SDS011;55472;50.060;21.960;2022-12-18T05:13:44;17.83;;;5.47;;
68484;SDS011;55472;50.060;21.960;2022-12-18T05:16:11;21.67;;;6.65;;
68484;SDS011;55472;50.060;21.960;2022-12-18T05:18:38;19.03;;;5.73;;
68484;SDS011;55472;50.060;21.960;2022-12-18T05:21:04;20.08;;;5.30;;
68484;SDS011;55472;50.060;21.960;2022-12-18T05:23:30;19.30;;;4.90;;
68484;SDS011;55472;50.060;21.960;2022-12-18T05:25:58;13.98;;;5.53;;
68484;SDS011;55472;50.060;21.960;2022-12-18T05:28:27;21.48;;;6.18;;
68484;SDS011;55472;50.060;21.960;2022-12-18T05:30:56;18.10;;;4.87;;
68484;SDS011;55472;50.060;21.960;2022-12-18T05:33:24;20.65;;;6.85;;
68484;SDS011;55472;50.060;21.960;2022-12-18T05:35:55;14.38;;;4.35;;
68484;SDS011;55472;50.060;21.960;2022-12-18T05:38:27;14.98;;;4.63;;
68484;SDS011;55472;50.060;21.960;2022-12-18T05:40:54;21.08;;;5.90;;
68484;SDS011;55472;50.060;21.960;2022-12-18T05:43:22;15.67;;;6.23;;
68484;SDS011;55472;50.060;21.960;2022-12-18T05:45:49;22.77;;;5.75;;
68484;SDS011;55472;50.060;21.960;2022-12-18T05:48:16;23.67;;;5.40;;
68484;SDS011;55472;50.060;21.960;2022-12-18T05:50:43;17.75;;;5.57;;
68484;SDS011;55472;50.060;21.960;2022-12-18T05:53:11;20.33;;;5.85;;
68484;SDS011;55472;50.060;21.960;2022-12-18T05:55:40;17.60;;;5.07;;
68484;SDS011;55472;50.060;21.960;2022-12-18T05:58:08;16.23;;;4.68;;
68484;SDS011;55472;50.060;21.960;2022-12-18T06:00:36;19.77;;;6.30;;
68484;SDS011;55472;50.060;21.960;2022-12-18T06:03:05;24.52;;;5.55;;
68484;SDS011;55472;50.060;21.960;2022-12-18T06:05:36;21.60;;;6.13;;
68484;SDS011;55472;50.060;21.960;2022-12-18T06:08:08;23.57;;;5.57;;
68484;SDS011;55472;50.060;21.960;2022-12-18T06:10:36;19.85;;;6.25;;
68484;SDS011;55472;50.060;21.960;2022-12-18T06:13:02;22.30;;;6.97;;
68484;SDS011;55472;50.060;21.960;2022-12-18T06:15:29;20.38;;;5.85;;
68484;SDS011;55472;50.060;21.960;2022-12-18T06:17:56;17.67;;;5.30;;
68484;SDS011;55472;50.060;21.960;2022-12-18T06:20:22;23.03;;;5.33;;
68484;SDS011;55472;50.060;21.960;2022-12-18T06:22:48;16.88;;;5.50;;
68484;SDS011;55472;50.060;21.960;2022-12-18T06:25:14;18.98;;;5.03;;
68484;SDS011;55472;50.060;21.960;2022-12-18T06:27:40;12.95;;;4.25;;
68484;SDS011;55472;50.060;21.960;2022-12-18T06:30:07;14.65;;;4.68;;
68484;SDS011;55472;50.060;21.960;2022-12-18T06:32:34;15.53;;;5.13;;
68484;SDS011;55472;50.060;21.960;2022-12-18T06:35:00;19.13;;;5.10;;
68484;SDS011;55472;50.060;21.960;2022-12-18T06:37:26;18.80;;;5.63;;
68484;SDS011;55472;50.060;21.960;2022-12-18T06:39:53;17.92;;;5.60;;
68484;SDS011;55472;50.060;21.960;2022-12-18T06:42:19;17.92;;;5.13;;
68484;SDS011;55472;50.060;21.960;2022-12-18T06:44:48;16.63;;;4.40;;
68484;SDS011;55472;50.060;21.960;2022-12-18T06:47:14;20.13;;;5.60;;
68484;SDS011;55472;50.060;21.960;2022-12-18T06:49:40;17.25;;;5.43;;
68484;SDS011;55472;50.060;21.960;2022-12-18T06:52:06;20.05;;;5.70;;
68484;SDS011;55472;50.060;21.960;2022-12-18T06:54:32;17.00;;;5.55;;
68484;SDS011;55472;50.060;21.960;2022-12-18T06:56:58;14.20;;;4.60;;
68484;SDS011;55472;50.060;21.960;2022-12-18T06:59:25;20.50;;;5.78;;
68484;SDS011;55472;50.060;21.960;2022-12-18T07:01:50;16.98;;;5.32;;
68484;SDS011;55472;50.060;21.960;2022-12-18T07:04:17;20.48;;;4.97;;
68484;SDS011;55472;50.060;21.960;2022-12-18T07:06:43;18.97;;;5.87;;
68484;SDS011;55472;50.060;21.960;2022-12-18T07:09:09;16.65;;;5.35;;
68484;SDS011;55472;50.060;21.960;2022-12-18T07:11:35;23.33;;;6.30;;
68484;SDS011;55472;50.060;21.960;2022-12-18T07:14:01;23.10;;;6.78;;
68484;SDS011;55472;50.060;21.960;2022-12-18T07:16:27;30.98;;;8.68;;
68484;SDS011;55472;50.060;21.960;2022-12-18T07:18:54;22.40;;;8.27;;
68484;SDS011;55472;50.060;21.960;2022-12-18T07:21:21;28.38;;;9.10;;
68484;SDS011;55472;50.060;21.960;2022-12-18T07:23:49;33.40;;;10.02;;
68484;SDS011;55472;50.060;21.960;2022-12-18T07:26:16;40.45;;;11.93;;
68484;SDS011;55472;50.060;21.960;2022-12-18T07:28:44;39.00;;;9.00;;
68484;SDS011;55472;50.060;21.960;2022-12-18T07:31:12;28.80;;;8.13;;
68484;SDS011;55472;50.060;21.960;2022-12-18T07:33:41;30.13;;;8.48;;
68484;SDS011;55472;50.060;21.960;2022-12-18T07:36:08;42.20;;;10.90;;
68484;SDS011;55472;50.060;21.960;2022-12-18T07:38:35;32.50;;;9.90;;
68484;SDS011;55472;50.060;21.960;2022-12-18T07:43:34;41.20;;;11.27;;
68484;SDS011;55472;50.060;21.960;2022-12-18T07:46:01;38.70;;;10.30;;
68484;SDS011;55472;50.060;21.960;2022-12-18T07:48:28;34.65;;;10.02;;
68484;SDS011;55472;50.060;21.960;2022-12-18T07:51:01;44.38;;;12.15;;
68484;SDS011;55472;50.060;21.960;2022-12-18T07:53:30;31.20;;;10.52;;
68484;SDS011;55472;50.060;21.960;2022-12-18T07:56:02;29.33;;;8.67;;
68484;SDS011;55472;50.060;21.960;2022-12-18T07:58:32;37.92;;;10.95;;
68484;SDS011;55472;50.060;21.960;2022-12-18T08:01:17;26.23;;;9.27;;
68484;SDS011;55472;50.060;21.960;2022-12-18T08:03:43;24.45;;;7.55;;
68484;SDS011;55472;50.060;21.960;2022-12-18T08:06:09;26.67;;;7.83;;
68484;SDS011;55472;50.060;21.960;2022-12-18T08:08:36;19.95;;;6.93;;
68484;SDS011;55472;50.060;21.960;2022-12-18T08:13:56;27.02;;;7.15;;
68484;SDS011;55472;50.060;21.960;2022-12-18T08:16:33;26.02;;;7.32;;
68484;SDS011;55472;50.060;21.960;2022-12-18T08:18:59;25.53;;;8.07;;
68484;SDS011;55472;50.060;21.960;2022-12-18T08:21:28;20.92;;;6.15;;
68484;SDS011;55472;50.060;21.960;2022-12-18T08:23:58;27.83;;;7.80;;
68484;SDS011;55472;50.060;21.960;2022-12-18T08:26:27;28.27;;;7.35;;
68484;SDS011;55472;50.060;21.960;2022-12-18T08:28:56;18.40;;;5.88;;
68484;SDS011;55472;50.060;21.960;2022-12-18T08:31:24;24.63;;;7.50;;
68484;SDS011;55472;50.060;21.960;2022-12-18T08:33:53;34.58;;;8.30;;
68484;SDS011;55472;50.060;21.960;2022-12-18T08:36:22;24.67;;;7.93;;
68484;SDS011;55472;50.060;21.960;2022-12-18T08:38:52;24.02;;;7.65;;
68484;SDS011;55472;50.060;21.960;2022-12-18T08:41:19;27.35;;;8.15;;
68484;SDS011;55472;50.060;21.960;2022-12-18T08:44:06;25.80;;;6.87;;
68484;SDS011;55472;50.060;21.960;2022-12-18T08:46:51;25.27;;;7.43;;
68484;SDS011;55472;50.060;21.960;2022-12-18T08:49:17;34.40;;;8.73;;
68484;SDS011;55472;50.060;21.960;2022-12-18T08:51:43;28.00;;;7.80;;
68484;SDS011;55472;50.060;21.960;2022-12-18T08:54:13;25.17;;;7.65;;
68484;SDS011;55472;50.060;21.960;2022-12-18T08:56:42;24.57;;;7.47;;
68484;SDS011;55472;50.060;21.960;2022-12-18T08:59:09;23.95;;;6.43;;
68484;SDS011;55472;50.060;21.960;2022-12-18T09:01:35;31.10;;;8.25;;
68484;SDS011;55472;50.060;21.960;2022-12-18T09:04:01;36.95;;;8.50;;
68484;SDS011;55472;50.060;21.960;2022-12-18T09:09:30;31.83;;;10.10;;
68484;SDS011;55472;50.060;21.960;2022-12-18T09:11:56;23.63;;;7.65;;
68484;SDS011;55472;50.060;21.960;2022-12-18T09:14:23;25.50;;;7.97;;
68484;SDS011;55472;50.060;21.960;2022-12-18T09:16:49;27.13;;;8.27;;
68484;SDS011;55472;50.060;21.960;2022-12-18T09:19:15;33.17;;;9.23;;
68484;SDS011;55472;50.060;21.960;2022-12-18T09:21:41;40.07;;;12.33;;
68484;SDS011;55472;50.060;21.960;2022-12-18T09:24:08;34.95;;;10.68;;
68484;SDS011;55472;50.060;21.960;2022-12-18T09:26:38;30.38;;;9.27;;
68484;SDS011;55472;50.060;21.960;2022-12-18T09:29:05;38.80;;;11.80;;
68484;SDS011;55472;50.060;21.960;2022-12-18T09:31:32;28.52;;;9.10;;
68484;SDS011;55472;50.060;21.960;2022-12-18T09:34:00;26.83;;;7.40;;
68484;SDS011;55472;50.060;21.960;2022-12-18T09:36:41;39.47;;;11.77;;
68484;SDS011;55472;50.060;21.960;2022-12-18T09:39:08;21.77;;;6.43;;
68484;SDS011;55472;50.060;21.960;2022-12-18T09:47:04;20.88;;;6.68;;
68484;SDS011;55472;50.060;21.960;2022-12-18T09:49:44;22.90;;;7.10;;
68484;SDS011;55472;50.060;21.960;2022-12-18T09:54:55;27.92;;;7.30;;
68484;SDS011;55472;50.060;21.960;2022-12-18T09:57:31;22.23;;;6.27;;
68484;SDS011;55472;50.060;21.960;2022-12-18T10:00:03;35.42;;;8.38;;
68484;SDS011;55472;50.060;21.960;2022-12-18T10:02:46;20.45;;;7.35;;
68484;SDS011;55472;50.060;21.960;2022-12-18T10:05:15;28.20;;;8.23;;
68484;SDS011;55472;50.060;21.960;2022-12-18T10:07:53;26.88;;;6.95;;
68484;SDS011;55472;50.060;21.960;2022-12-18T10:13:38;22.80;;;7.07;;
68484;SDS011;55472;50.060;21.960;2022-12-18T10:16:13;19.52;;;6.57;;
68484;SDS011;55472;50.060;21.960;2022-12-18T10:28:35;61.15;;;17.17;;
68484;SDS011;55472;50.060;21.960;2022-12-18T10:31:18;47.00;;;12.48;;
68484;SDS011;55472;50.060;21.960;2022-12-18T10:33:49;26.40;;;8.68;;
68484;SDS011;55472;50.060;21.960;2022-12-18T10:36:16;24.58;;;7.72;;
68484;SDS011;55472;50.060;21.960;2022-12-18T10:38:43;27.40;;;9.33;;
68484;SDS011;55472;50.060;21.960;2022-12-18T10:43:47;34.42;;;11.18;;
68484;SDS011;55472;50.060;21.960;2022-12-18T10:46:17;26.00;;;7.13;;
68484;SDS011;55472;50.060;21.960;2022-12-18T10:51:23;30.70;;;11.00;;
68484;SDS011;55472;50.060;21.960;2022-12-18T10:54:05;35.85;;;10.40;;
68484;SDS011;55472;50.060;21.960;2022-12-18T10:56:39;25.30;;;8.63;;
68484;SDS011;55472;50.060;21.960;2022-12-18T10:59:10;28.77;;;10.35;;
68484;SDS011;55472;50.060;21.960;2022-12-18T11:04:52;24.23;;;8.67;;
68484;SDS011;55472;50.060;21.960;2022-12-18T11:07:18;27.13;;;7.95;;
68484;SDS011;55472;50.060;21.960;2022-12-18T11:09:45;30.23;;;8.60;;
68484;SDS011;55472;50.060;21.960;2022-12-18T11:12:29;23.45;;;7.80;;
68484;SDS011;55472;50.060;21.960;2022-12-18T11:14:56;22.75;;;7.47;;
68484;SDS011;55472;50.060;21.960;2022-12-18T11:17:40;28.13;;;8.10;;
68484;SDS011;55472;50.060;21.960;2022-12-18T11:23:10;22.40;;;8.00;;
68484;SDS011;55472;50.060;21.960;2022-12-18T11:25:39;31.15;;;9.40;;
68484;SDS011;55472;50.060;21.960;2022-12-18T11:28:08;36.35;;;10.70;;
68484;SDS011;55472;50.060;21.960;2022-12-18T11:31:25;31.67;;;9.57;;
68484;SDS011;55472;50.060;21.960;2022-12-18T11:36:39;31.52;;;9.93;;
68484;SDS011;55472;50.060;21.960;2022-12-18T11:39:19;24.83;;;8.52;;
68484;SDS011;55472;50.060;21.960;2022-12-18T11:44:48;26.97;;;8.23;;
68484;SDS011;55472;50.060;21.960;2022-12-18T11:47:54;24.80;;;7.13;;
68484;SDS011;55472;50.060;21.960;2022-12-18T11:53:18;29.90;;;8.93;;
68484;SDS011;55472;50.060;21.960;2022-12-18T11:58:48;20.13;;;6.73;;
68484;SDS011;55472;50.060;21.960;2022-12-18T12:04:45;26.15;;;7.05;;
68484;SDS011;55472;50.060;21.960;2022-12-18T12:07:45;25.50;;;7.10;;
68484;SDS011;55472;50.060;21.960;2022-12-18T12:16:27;28.40;;;9.20;;
68484;SDS011;55472;50.060;21.960;2022-12-18T12:19:16;26.40;;;8.60;;
68484;SDS011;55472;50.060;21.960;2022-12-18T12:22:29;28.58;;;8.20;;
68484;SDS011;55472;50.060;21.960;2022-12-18T12:30:55;23.48;;;6.18;;
68484;SDS011;55472;50.060;21.960;2022-12-18T12:39:18;24.83;;;8.95;;
68484;SDS011;55472;50.060;21.960;2022-12-18T12:41:59;32.53;;;9.07;;
68484;SDS011;55472;50.060;21.960;2022-12-18T12:44:56;24.48;;;7.75;;
68484;SDS011;55472;50.060;21.960;2022-12-18T12:47:28;20.60;;;6.20;;
68484;SDS011;55472;50.060;21.960;2022-12-18T12:50:00;22.38;;;7.13;;
68484;SDS011;55472;50.060;21.960;2022-12-18T12:55:04;38.40;;;10.33;;
68484;SDS011;55472;50.060;21.960;2022-12-18T12:57:40;44.10;;;11.13;;
68484;SDS011;55472;50.060;21.960;2022-12-18T13:00:14;39.15;;;14.52;;
68484;SDS011;55472;50.060;21.960;2022-12-18T13:08:27;27.20;;;8.83;;
68484;SDS011;55472;50.060;21.960;2022-12-18T13:14:38;25.23;;;8.50;;
68484;SDS011;55472;50.060;21.960;2022-12-18T13:19:49;22.65;;;5.65;;
68484;SDS011;55472;50.060;21.960;2022-12-18T13:22:27;24.30;;;7.57;;
68484;SDS011;55472;50.060;21.960;2022-12-18T13:25:26;15.43;;;5.00;;
68484;SDS011;55472;50.060;21.960;2022-12-18T13:28:00;26.17;;;7.65;;
68484;SDS011;55472;50.060;21.960;2022-12-18T13:36:15;20.17;;;5.63;;
68484;SDS011;55472;50.060;21.960;2022-12-18T13:39:31;18.60;;;6.07;;
68484;SDS011;55472;50.060;21.960;2022-12-18T13:44:44;19.17;;;5.95;;
68484;SDS011;55472;50.060;21.960;2022-12-18T13:50:19;17.17;;;5.73;;
68484;SDS011;55472;50.060;21.960;2022-12-18T13:53:36;20.17;;;5.43;;
68484;SDS011;55472;50.060;21.960;2022-12-18T13:56:14;23.17;;;5.97;;
68484;SDS011;55472;50.060;21.960;2022-12-18T13:58:42;14.45;;;5.28;;
68484;SDS011;55472;50.060;21.960;2022-12-18T14:01:21;17.50;;;4.80;;
68484;SDS011;55472;50.060;21.960;2022-12-18T14:03:50;22.93;;;5.60;;
68484;SDS011;55472;50.060;21.960;2022-12-18T14:10:24;21.75;;;7.47;;
68484;SDS011;55472;50.060;21.960;2022-12-18T14:12:51;19.55;;;5.80;;
68484;SDS011;55472;50.060;21.960;2022-12-18T14:17:52;30.67;;;9.03;;
68484;SDS011;55472;50.060;21.960;2022-12-18T14:20:48;29.80;;;8.55;;
68484;SDS011;55472;50.060;21.960;2022-12-18T14:27:12;25.50;;;7.78;;
68484;SDS011;55472;50.060;21.960;2022-12-18T14:29:51;27.27;;;9.35;;
68484;SDS011;55472;50.060;21.960;2022-12-18T14:32:18;27.93;;;7.80;;
68484;SDS011;55472;50.060;21.960;2022-12-18T14:34:50;31.15;;;9.02;;
68484;SDS011;55472;50.060;21.960;2022-12-18T14:37:25;29.17;;;9.05;;
68484;SDS011;55472;50.060;21.960;2022-12-18T14:39:55;32.10;;;9.43;;
68484;SDS011;55472;50.060;21.960;2022-12-18T14:42:23;31.65;;;8.23;;
68484;SDS011;55472;50.060;21.960;2022-12-18T14:47:58;25.00;;;7.88;;
68484;SDS011;55472;50.060;21.960;2022-12-18T14:50:25;23.92;;;8.15;;
68484;SDS011;55472;50.060;21.960;2022-12-18T14:52:51;24.42;;;7.78;;
68484;SDS011;55472;50.060;21.960;2022-12-18T14:55:18;23.85;;;7.28;;
68484;SDS011;55472;50.060;21.960;2022-12-18T14:57:48;24.53;;;7.20;;
68484;SDS011;55472;50.060;21.960;2022-12-18T15:00:19;22.98;;;7.53;;
68484;SDS011;55472;50.060;21.960;2022-12-18T15:02:49;27.13;;;6.88;;
68484;SDS011;55472;50.060;21.960;2022-12-18T15:05:25;20.20;;;7.03;;
68484;SDS011;55472;50.060;21.960;2022-12-18T15:07:55;31.98;;;8.50;;
68484;SDS011;55472;50.060;21.960;2022-12-18T15:10:24;26.30;;;8.83;;
68484;SDS011;55472;50.060;21.960;2022-12-18T15:25:59;37.40;;;12.23;;
68484;SDS011;55472;50.060;21.960;2022-12-18T15:28:31;46.45;;;14.00;;
68484;SDS011;55472;50.060;21.960;2022-12-18T15:31:05;43.58;;;12.93;;
68484;SDS011;55472;50.060;21.960;2022-12-18T15:34:01;39.03;;;11.95;;
68484;SDS011;55472;50.060;21.960;2022-12-18T15:36:33;38.83;;;11.13;;
68484;SDS011;55472;50.060;21.960;2022-12-18T15:39:03;37.20;;;11.00;;
68484;SDS011;55472;50.060;21.960;2022-12-18T15:41:33;35.88;;;10.55;;
68484;SDS011;55472;50.060;21.960;2022-12-18T15:44:02;27.45;;;8.30;;
68484;SDS011;55472;50.060;21.960;2022-12-18T15:46:49;37.85;;;10.95;;
68484;SDS011;55472;50.060;21.960;2022-12-18T15:49:15;34.47;;;11.13;;
68484;SDS011;55472;50.060;21.960;2022-12-18T15:51:41;33.90;;;10.40;;
68484;SDS011;55472;50.060;21.960;2022-12-18T15:54:11;38.20;;;12.13;;
68484;SDS011;55472;50.060;21.960;2022-12-18T15:56:41;43.15;;;12.88;;
68484;SDS011;55472;50.060;21.960;2022-12-18T15:59:26;35.80;;;10.20;;
68484;SDS011;55472;50.060;21.960;2022-12-18T16:01:54;33.50;;;10.80;;
68484;SDS011;55472;50.060;21.960;2022-12-18T16:04:21;38.70;;;11.82;;
68484;SDS011;55472;50.060;21.960;2022-12-18T16:06:49;50.30;;;12.80;;
68484;SDS011;55472;50.060;21.960;2022-12-18T16:09:16;30.70;;;10.38;;
68484;SDS011;55472;50.060;21.960;2022-12-18T16:11:43;25.50;;;9.73;;
68484;SDS011;55472;50.060;21.960;2022-12-18T16:14:28;30.93;;;10.27;;
68484;SDS011;55472;50.060;21.960;2022-12-18T16:16:59;21.50;;;6.95;;
68484;SDS011;55472;50.060;21.960;2022-12-18T16:19:28;23.42;;;6.68;;
68484;SDS011;55472;50.060;21.960;2022-12-18T16:21:56;22.40;;;7.22;;
68484;SDS011;55472;50.060;21.960;2022-12-18T16:24:27;27.83;;;7.97;;
68484;SDS011;55472;50.060;21.960;2022-12-18T16:26:58;32.40;;;10.17;;
68484;SDS011;55472;50.060;21.960;2022-12-18T16:29:25;34.60;;;9.77;;
68484;SDS011;55472;50.060;21.960;2022-12-18T16:31:57;30.85;;;9.63;;
68484;SDS011;55472;50.060;21.960;2022-12-18T16:34:26;27.55;;;8.77;;
68484;SDS011;55472;50.060;21.960;2022-12-18T16:36:58;25.52;;;7.93;;
68484;SDS011;55472;50.060;21.960;2022-12-18T16:39:30;27.13;;;7.90;;
68484;SDS011;55472;50.060;21.960;2022-12-18T16:41:58;35.92;;;10.48;;
68484;SDS011;55472;50.060;21.960;2022-12-18T16:44:25;42.42;;;12.93;;
68484;SDS011;55472;50.060;21.960;2022-12-18T16:46:52;25.10;;;8.68;;
68484;SDS011;55472;50.060;21.960;2022-12-18T16:49:18;23.40;;;6.43;;
68484;SDS011;55472;50.060;21.960;2022-12-18T16:51:45;22.17;;;6.30;;
68484;SDS011;55472;50.060;21.960;2022-12-18T16:54:11;19.80;;;6.32;;
68484;SDS011;55472;50.060;21.960;2022-12-18T16:56:38;22.08;;;6.78;;
68484;SDS011;55472;50.060;21.960;2022-12-18T16:59:04;21.95;;;7.60;;
68484;SDS011;55472;50.060;21.960;2022-12-18T17:01:31;20.50;;;7.30;;
68484;SDS011;55472;50.060;21.960;2022-12-18T17:04:01;29.67;;;8.27;;
68484;SDS011;55472;50.060;21.960;2022-12-18T17:06:31;24.98;;;6.18;;
68484;SDS011;55472;50.060;21.960;2022-12-18T17:09:00;24.30;;;6.60;;
68484;SDS011;55472;50.060;21.960;2022-12-18T17:11:30;22.92;;;6.78;;
68484;SDS011;55472;50.060;21.960;2022-12-18T17:13:58;17.05;;;6.32;;
68484;SDS011;55472;50.060;21.960;2022-12-18T17:16:31;26.83;;;7.20;;
68484;SDS011;55472;50.060;21.960;2022-12-18T17:18:57;24.42;;;6.70;;
68484;SDS011;55472;50.060;21.960;2022-12-18T17:21:23;26.20;;;6.38;;
68484;SDS011;55472;50.060;21.960;2022-12-18T17:23:49;21.92;;;6.60;;
68484;SDS011;55472;50.060;21.960;2022-12-18T17:26:15;20.08;;;6.40;;
68484;SDS011;55472;50.060;21.960;2022-12-18T17:28:41;19.43;;;6.13;;
68484;SDS011;55472;50.060;21.960;2022-12-18T17:31:12;25.10;;;7.25;;